createdAt,value
2023-02-24T00:06:12.122Z,100
2023-02-24T00:16:13.093Z,100
2023-02-24T00:26:13.336Z,100
2023-02-24T00:36:13.975Z,100
2023-02-24T00:56:15.369Z,100
2023-02-24T01:16:16.072Z,100
2023-02-24T01:26:17.058Z,100
2023-02-24T01:36:17.371Z,100
2023-02-24T01:46:18.198Z,100
2023-02-24T01:56:18.786Z,100
2023-02-24T02:06:19.003Z,100
2023-02-24T02:16:19.664Z,100
2023-02-24T02:26:20.277Z,100
2023-02-24T02:36:20.643Z,100
2023-02-24T02:46:21.581Z,100
2023-02-24T03:06:23.026Z,100
2023-02-24T03:16:23.481Z,100
2023-02-24T03:26:24.271Z,100
2023-02-24T03:36:25.138Z,100
2023-02-24T04:06:27.054Z,100
2023-02-24T04:16:27.616Z,100
2023-02-24T04:26:28.453Z,100
2023-02-24T04:36:29.017Z,100
2023-02-24T04:46:30.063Z,100
2023-02-24T04:56:30.802Z,100
2023-02-24T05:16:32.346Z,100
2023-02-24T05:26:32.593Z,100
2023-02-24T05:36:32.985Z,100
2023-02-24T05:46:34.020Z,100
2023-02-24T05:56:34.099Z,100
2023-02-24T06:06:34.807Z,100
2023-02-24T06:16:34.981Z,100
2023-02-24T06:26:35.579Z,100
2023-02-24T06:36:35.930Z,100
2023-02-24T06:56:36.956Z,100
2023-02-24T07:06:37.718Z,100
2023-02-24T07:16:38.625Z,100
2023-02-24T07:36:39.041Z,100
2023-02-24T07:46:40.017Z,100
2023-02-24T07:56:40.987Z,100
2023-02-24T08:06:41.928Z,100
2023-02-24T08:16:42.589Z,100
2023-02-24T08:26:43.114Z,100
2023-02-24T08:36:43.650Z,99
2023-02-24T08:46:44.060Z,98
2023-02-24T08:56:44.956Z,98
2023-02-24T09:06:45.442Z,97
2023-02-24T09:16:45.614Z,96
2023-02-24T09:26:45.790Z,95
2023-02-24T09:36:46.671Z,95
2023-02-24T09:46:47.102Z,94
2023-02-24T09:56:48.015Z,93
2023-02-24T10:06:49.008Z,93
2023-02-24T10:16:49.331Z,93
2023-02-24T10:26:59.936Z,93
2023-02-24T10:36:51.293Z,94
2023-02-24T10:46:51.741Z,95
2023-02-24T10:56:52.241Z,96
2023-02-24T11:16:53.935Z,97
2023-02-24T11:36:55.643Z,98
2023-02-24T11:46:56.189Z,99
2023-02-24T11:47:18.103Z,99
2023-02-24T11:57:02.214Z,99
2023-02-24T12:07:04.252Z,99
2023-02-24T12:17:04.063Z,100
2023-02-24T12:37:05.458Z,100
2023-02-24T12:47:06.038Z,100
2023-02-24T12:57:06.734Z,100
2023-02-24T13:07:06.924Z,100
2023-02-24T13:17:07.819Z,100
2023-02-24T13:27:08.210Z,100
2023-02-24T13:47:08.854Z,100
2023-02-24T14:07:10.083Z,100
2023-02-24T14:17:11.034Z,100
2023-02-24T14:27:11.184Z,100
2023-02-24T14:37:11.552Z,100
2023-02-24T14:47:12.021Z,100
2023-02-24T14:57:12.188Z,100
2023-02-24T15:07:12.827Z,100
2023-02-24T15:17:13.521Z,100
2023-02-24T15:27:14.349Z,100
2023-02-24T15:37:15.064Z,100
2023-02-24T15:47:15.667Z,100
2023-02-24T15:57:16.752Z,100
2023-02-24T16:07:17.673Z,100
2023-02-24T16:17:18.143Z,100
2023-02-24T16:27:18.507Z,100
2023-02-24T16:37:18.990Z,100
2023-02-24T16:47:19.811Z,100
2023-02-24T16:57:19.930Z,100
2023-02-24T17:07:20.939Z,100
2023-02-24T17:17:21.350Z,100
2023-02-24T17:27:21.789Z,100
2023-02-24T17:37:22.482Z,100
2023-02-24T17:47:23.341Z,100
2023-02-24T17:57:23.967Z,100
2023-02-24T18:07:24.457Z,100
2023-02-24T18:17:24.638Z,100
2023-02-24T18:37:25.942Z,100
2023-02-24T18:47:26.646Z,100
2023-02-24T19:07:27.150Z,100
2023-02-24T19:17:27.646Z,100
2023-02-24T19:27:28.618Z,100
2023-02-24T19:37:29.681Z,99
2023-02-24T19:47:30.118Z,99
2023-02-24T19:57:30.534Z,99
2023-02-24T20:07:31.486Z,99
2023-02-24T20:17:31.981Z,99
2023-02-24T20:27:33.025Z,99
2023-02-24T20:37:33.473Z,99
2023-02-24T20:47:34.496Z,99
2023-02-24T20:57:35.472Z,99
2023-02-24T21:07:35.872Z,99
2023-02-24T21:17:36.877Z,99
2023-02-24T21:27:37.408Z,99
2023-02-24T21:37:38.094Z,99
2023-02-24T21:47:38.789Z,99
2023-02-24T21:57:40.982Z,99
2023-02-24T22:07:39.628Z,99
2023-02-24T22:17:39.959Z,99
2023-02-24T22:27:40.251Z,99
2023-02-24T22:37:40.483Z,99
2023-02-24T22:47:40.970Z,99
2023-02-24T22:57:41.846Z,100
2023-02-24T23:07:42.230Z,100
2023-02-24T23:17:42.553Z,100
2023-02-24T23:37:44.059Z,99
2023-02-24T23:47:44.366Z,99
2023-02-24T23:57:44.553Z,99
